Uraga Maru — JD2163 — position and weather

sailwx.info

Track history (hours):
 
Tides and Currents Weather Stations Pressure Air Temp Water Temp Dewpoint Dewpoint Depression Visibility Wind Speed Wind Dir Waves Ship Positions

Uraga Maru

Last reported at 2015-Jul-07 20:33 UTC. Time now 2015-Jul-07 21:57 UTC.
Position N 35°17' E 139°41'.

Length 40 m; draft 2.8 m.

Type: Tug. MMSI: 431101119.

Date/timePositionNaut miles runAvg speedWind from/ knotsBaromVisibWave heightAir tempDewpointWater temp
2015-Jul-07 20:33N 35°17' E 139°41'7 7.1
2015-Jul-07 19:33N 35°24' E 139°43'1211.9
2015-Jul-07 18:33N 35°13' E 139°47'3 3.2
2015-Jul-07 17:33N 35°13' E 139°43'0 0.2
2015-Jul-07 16:33N 35°13' E 139°43'0 0.0
2015-Jul-07 15:33N 35°13' E 139°43'0 0.0
2015-Jul-07 14:33N 35°13' E 139°43'0 0.0
2015-Jul-07 13:33N 35°13' E 139°43'0 0.0
2015-Jul-07 12:33N 35°13' E 139°43'0 0.0
2015-Jul-07 11:33N 35°13' E 139°43'1 1.2
2015-Jul-07 10:33N 35°13' E 139°44'8 7.6
2015-Jul-07 09:33N 35°21' E 139°42'1 1.3
2015-Jul-07 08:33N 35°20' E 139°42'3 2.7
2015-Jul-07 07:33N 35°17' E 139°41'0 0.1
2015-Jul-07 06:33N 35°17' E 139°41'5 5.0
2015-Jul-07 05:34N 35°15' E 139°46'9 9.3
2015-Jul-07 04:34N 35°23' E 139°41'6 5.7
2015-Jul-07 03:33N 35°18' E 139°42'1 1.2
2015-Jul-07 02:34N 35°17' E 139°41'0 0.0
2015-Jul-07 01:34N 35°17' E 139°41'0 0.0
2015-Jul-07 00:34N 35°17' E 139°41'0 0.0
2015-Jul-06 23:33N 35°17' E 139°41'0 0.0
2015-Jul-06 22:34N 35°17' E 139°41'0 0.0
2015-Jul-06 21:34N 35°17' E 139°41'0 0.0
2015-Jul-06 20:34N 35°17' E 139°41'0 0.0
2015-Jul-06 19:33N 35°17' E 139°41'0 0.0
2015-Jul-06 18:33N 35°17' E 139°41'0 0.0
2015-Jul-06 17:33N 35°17' E 139°41'0 0.0
2015-Jul-06 16:33N 35°17' E 139°41'0 0.0
2015-Jul-06 15:34N 35°17' E 139°41'0 0.0
2015-Jul-06 14:33N 35°17' E 139°41'0 0.0
2015-Jul-06 13:33N 35°17' E 139°41'0 0.0
2015-Jul-06 12:33N 35°17' E 139°41'0 0.0
2015-Jul-06 11:30N 35°17' E 139°41'0 0.0
2015-Jul-06 10:33N 35°17' E 139°41'0 0.0
2015-Jul-06 09:33N 35°17' E 139°41'0 0.0
2015-Jul-06 08:33N 35°17' E 139°41'0 0.0
2015-Jul-06 07:33N 35°17' E 139°41'0 0.0
2015-Jul-06 06:34N 35°17' E 139°41'0 0.0
2015-Jul-06 05:33N 35°17' E 139°41'0 0.0
2015-Jul-06 04:34N 35°17' E 139°41'0 0.0
2015-Jul-06 03:34N 35°17' E 139°41'5 4.5
2015-Jul-06 02:33N 35°15' E 139°45'1 1.3
2015-Jul-06 01:33N 35°16' E 139°46'1211.7
2015-Jul-06 00:34N 35°28' E 139°47'2 1.6
2015-Jul-05 23:33N 35°29' E 139°47'0 0.0
2015-Jul-05 22:33N 35°29' E 139°47'2 2.2
2015-Jul-05 21:33N 35°27' E 139°47'1111.3
2015-Jul-05 20:33N 35°16' E 139°47'4 3.6
2015-Jul-05 19:34N 35°12' E 139°46'3 1.3
2015-Jul-05 17:24N 35°13' E 139°43'0 0.0
2015-Jul-05 16:33N 35°13' E 139°43'0 0.0
2015-Jul-05 15:33N 35°13' E 139°43'0 0.0
2015-Jul-05 14:25N 35°13' E 139°43'1 0.2
2015-Jul-05 09:33N 35°13' E 139°44'7 6.8
2015-Jul-05 08:33N 35°20' E 139°43'7 6.5
2015-Jul-05 07:33N 35°24' E 139°49'2 1.7
2015-Jul-05 06:33N 35°24' E 139°51'0 0.0
2015-Jul-05 05:33N 35°24' E 139°51'5 4.8
2015-Jul-05 04:33N 35°28' E 139°51'1211.8
2015-Jul-05 03:33N 35°18' E 139°45'8 8.0
2015-Jul-05 02:33N 35°10' E 139°47'6 6.5
2015-Jul-05 01:33N 35°16' E 139°45'6 5.8
2015-Jul-05 00:33N 35°21' E 139°42'3 3.2
2015-Jul-04 23:33N 35°23' E 139°45'1111.2
2015-Jul-04 22:33N 35°11' E 139°47'5 5.2
2015-Jul-04 21:33N 35°16' E 139°45'3 3.4
2015-Jul-04 20:33N 35°17' E 139°41'0 0.0
2015-Jul-04 19:33N 35°17' E 139°41'0 0.0
2015-Jul-04 18:33N 35°17' E 139°41'0 0.0
2015-Jul-04 17:33N 35°17' E 139°41'0 0.0
2015-Jul-04 16:33N 35°17' E 139°41'0 0.0
2015-Jul-04 15:33N 35°17' E 139°41'0 0.0
2015-Jul-04 14:33N 35°17' E 139°41'0 0.0
2015-Jul-04 13:33N 35°17' E 139°41'0 0.0
2015-Jul-04 12:33N 35°17' E 139°41'0 0.0
2015-Jul-04 11:27N 35°17' E 139°41'0 0.0
2015-Jul-04 10:33N 35°17' E 139°41'0 0.0
2015-Jul-04 09:33N 35°17' E 139°41'0 0.0
2015-Jul-04 08:32N 35°17' E 139°41'0 0.0
2015-Jul-04 07:32N 35°17' E 139°41'0 0.0
2015-Jul-04 06:33N 35°17' E 139°41'0 0.0
2015-Jul-04 05:32N 35°17' E 139°41'0 0.0
2015-Jul-04 04:32N 35°17' E 139°41'0 0.0
2015-Jul-04 03:15N 35°17' E 139°41'5 7.2
2015-Jul-04 02:33N 35°14' E 139°45'7 6.6
2015-Jul-04 01:34N 35°20' E 139°42'5 4.8
2015-Jul-04 00:34N 35°24' E 139°39'4 3.7
2015-Jul-03 23:33N 35°21' E 139°41'4 0.7
2015-Jul-03 18:31N 35°17' E 139°41'0 0.0
2015-Jul-03 15:25N 35°17' E 139°41'1 0.1
2015-Jul-03 11:34N 35°17' E 139°41'5 5.2
2015-Jul-03 10:32N 35°14' E 139°46'1211.9
2015-Jul-03 09:34N 35°25' E 139°42'1 1.2
2015-Jul-03 08:34N 35°25' E 139°44'1 1.0
2015-Jul-03 07:34N 35°24' E 139°44'0 0.0
2015-Jul-03 06:34N 35°24' E 139°44'0 0.0
2015-Jul-03 05:34N 35°24' E 139°44'5 5.3
2015-Jul-03 04:34N 35°20' E 139°49'1 1.4
2015-Jul-03 03:34N 35°22' E 139°49'1 1.2
2015-Jul-03 02:34N 35°23' E 139°49'4 3.9
2015-Jul-03 01:33N 35°21' E 139°45'1110.6
2015-Jul-03 00:33N 35°10' E 139°47'8 8.2
2015-Jul-02 23:32N 35°17' E 139°42'1 1.0
2015-Jul-02 22:28N 35°17' E 139°41'0 0.0
2015-Jul-02 21:21N 35°17' E 139°41'0 0.0
2015-Jul-02 20:33N 35°17' E 139°41'0 0.0
2015-Jul-02 19:31N 35°17' E 139°41'0 0.0
2015-Jul-02 18:31N 35°17' E 139°41'0 0.1
2015-Jul-02 17:32N 35°17' E 139°41'0 0.0
2015-Jul-02 16:33N 35°17' E 139°41'0 0.0
2015-Jul-02 15:33N 35°17' E 139°41'0 0.0
2015-Jul-02 14:33N 35°17' E 139°41'0 0.0
2015-Jul-02 13:33N 35°17' E 139°41'0 0.0
2015-Jul-02 12:33N 35°17' E 139°41'0 0.0
2015-Jul-02 11:31N 35°17' E 139°41'0 0.1
2015-Jul-02 10:33N 35°17' E 139°41'0 0.0
2015-Jul-02 09:32N 35°17' E 139°41'0 0.1
2015-Jul-02 08:32N 35°17' E 139°41'0 0.0
2015-Jul-02 07:33N 35°17' E 139°41'0 0.0
2015-Jul-02 06:33N 35°17' E 139°41'0 0.0
2015-Jul-02 05:33N 35°17' E 139°41'5 4.5
2015-Jul-02 04:33N 35°15' E 139°46'6 5.7
2015-Jul-02 03:33N 35°20' E 139°42'1111.4
2015-Jul-02 02:34N 35°29' E 139°51'5 4.9
2015-Jul-02 01:34N 35°31' E 139°57'3 2.7
2015-Jul-02 00:34N 35°29' E 139°55'0 0.0
2015-Jul-01 23:33N 35°29' E 139°55'3 3.3
2015-Jul-01 22:30N 35°27' E 139°51'1111.3
2015-Jul-01 21:33N 35°18' E 139°44'7 7.3
2015-Jul-01 20:34N 35°11' E 139°46'8 3.7
2015-Jul-01 18:33N 35°17' E 139°41'0 0.0
2015-Jul-01 17:31N 35°17' E 139°41'0 0.0
2015-Jul-01 16:28N 35°17' E 139°41'0 0.0
2015-Jul-01 15:05N 35°17' E 139°41'0 0.0
2015-Jul-01 14:18N 35°17' E 139°41'0 0.0
2015-Jul-01 08:31N 35°17' E 139°41'0 0.0
2015-Jul-01 05:20N 35°17' E 139°41'0 0.0
2015-Jul-01 04:32N 35°17' E 139°41'0 0.0
2015-Jun-30 22:19N 35°17' E 139°41'0 0.1
2015-Jun-30 20:18N 35°17' E 139°41'0 0.0
2015-Jun-30 16:28N 35°17' E 139°41'0 0.0
2015-Jun-30 10:19N 35°17' E 139°41'5 6.2
2015-Jun-30 09:33N 35°13' E 139°44'4 4.5
2015-Jun-30 08:33N 35°18' E 139°44'5 4.9
2015-Jun-30 07:33N 35°22' E 139°42'5 5.4
2015-Jun-30 06:33N 35°17' E 139°41'0 0.0
2015-Jun-30 05:33N 35°17' E 139°41'0 0.0
2015-Jun-30 04:15N 35°17' E 139°41'0 0.0
2015-Jun-30 03:33N 35°17' E 139°41'1 1.1
2015-Jun-30 02:33N 35°18' E 139°42'3 3.0
2015-Jun-30 01:33N 35°17' E 139°45'9 8.8
2015-Jun-30 00:33N 35°24' E 139°39'4 4.1
2015-Jun-29 23:34N 35°20' E 139°41'3 3.1
2015-Jun-29 22:33N 35°17' E 139°41'0 0.0
2015-Jun-29 21:28N 35°17' E 139°41'0 0.0
2015-Jun-29 20:33N 35°17' E 139°41'0 0.0
2015-Jun-29 19:11N 35°17' E 139°41'0 0.0
2015-Jun-29 18:28N 35°17' E 139°41'0 0.0
2015-Jun-29 16:31N 35°17' E 139°41'0 0.0
2015-Jun-29 15:15N 35°17' E 139°41'0 0.0
2015-Jun-29 13:32N 35°17' E 139°41'0 0.0
2015-Jun-29 12:28N 35°17' E 139°41'0 0.0
2015-Jun-29 11:33N 35°17' E 139°41'0 0.0
2015-Jun-29 10:16N 35°17' E 139°41'0 0.0
2015-Jun-29 09:31N 35°17' E 139°41'0 0.0
2015-Jun-29 08:28N 35°17' E 139°41'0 0.0
2015-Jun-29 07:29N 35°17' E 139°41'0 0.0
2015-Jun-29 06:32N 35°17' E 139°41'0 0.0
2015-Jun-29 05:34N 35°17' E 139°41'0 0.0
2015-Jun-29 04:33N 35°17' E 139°41'0 0.0
2015-Jun-29 03:33N 35°17' E 139°41'0 0.0
2015-Jun-29 02:32N 35°17' E 139°41'0 0.0
2015-Jun-29 01:33N 35°17' E 139°41'0 0.0
2015-Jun-29 00:27N 35°17' E 139°41'0 0.0
2015-Jun-28 23:32N 35°17' E 139°41'0 0.0
2015-Jun-28 22:33N 35°17' E 139°41'2 1.8
2015-Jun-28 21:33N 35°18' E 139°42'7 7.3
2015-Jun-28 20:33N 35°25' E 139°43'6 6.1
2015-Jun-28 19:34N 35°19' E 139°43'9 9.1
2015-Jun-28 18:33N 35°10' E 139°46'4 3.9
2015-Jun-28 17:32N 35°13' E 139°43'0 0.0
2015-Jun-28 16:33N 35°13' E 139°43'0 0.0
2015-Jun-28 15:33N 35°13' E 139°43'0 0.0
2015-Jun-28 14:33N 35°13' E 139°43'0 0.0
2015-Jun-28 13:33N 35°13' E 139°43'3 2.7
2015-Jun-28 12:33N 35°12' E 139°46'1212.2
2015-Jun-28 11:33N 35°24' E 139°43'1 1.3
2015-Jun-28 10:33N 35°24' E 139°44'0 0.0
2015-Jun-28 09:33N 35°24' E 139°44'2 2.1
2015-Jun-28 08:33N 35°25' E 139°47'1211.6
2015-Jun-28 07:33N 35°14' E 139°47'3 3.1
2015-Jun-28 06:33N 35°13' E 139°43'0 0.0
2015-Jun-28 05:24N 35°13' E 139°43'0 0.0
2015-Jun-28 04:20N 35°13' E 139°43'0 0.0
2015-Jun-28 03:23N 35°13' E 139°43'0 0.0
2015-Jun-28 02:23N 35°13' E 139°43'0 0.0
2015-Jun-28 00:30N 35°13' E 139°43'1 1.4
2015-Jun-27 23:33N 35°13' E 139°45'5 5.1
2015-Jun-27 22:33N 35°17' E 139°41'1 0.5
2015-Jun-27 21:34N 35°17' E 139°41'0 0.0
2015-Jun-27 20:33N 35°17' E 139°41'  
Track history (hours):
 
Tides and Currents Weather Stations Pressure Air Temp Water Temp Dewpoint Dewpoint Depression Visibility Wind Speed Wind Dir Waves Ship Positions

Uraga Maru

Last reported at 2015-Jul-07 20:33 UTC. Time now 2015-Jul-07 21:57 UTC.
Position N 35°17' E 139°41'.

Length 40 m; draft 2.8 m.

Type: Tug. MMSI: 431101119.

Date/timePositionNaut miles runAvg speedWind from/ knotsBaromVisibWave heightAir tempDewpointWater temp
2015-Jul-07 20:33N 35°17' E 139°41'7 7.1
2015-Jul-07 19:33N 35°24' E 139°43'1211.9
2015-Jul-07 18:33N 35°13' E 139°47'3 3.2
2015-Jul-07 17:33N 35°13' E 139°43'0 0.2
2015-Jul-07 16:33N 35°13' E 139°43'0 0.0
2015-Jul-07 15:33N 35°13' E 139°43'0 0.0
2015-Jul-07 14:33N 35°13' E 139°43'0 0.0
2015-Jul-07 13:33N 35°13' E 139°43'0 0.0
2015-Jul-07 12:33N 35°13' E 139°43'0 0.0
2015-Jul-07 11:33N 35°13' E 139°43'1 1.2
2015-Jul-07 10:33N 35°13' E 139°44'8 7.6
2015-Jul-07 09:33N 35°21' E 139°42'1 1.3
2015-Jul-07 08:33N 35°20' E 139°42'3 2.7
2015-Jul-07 07:33N 35°17' E 139°41'0 0.1
2015-Jul-07 06:33N 35°17' E 139°41'5 5.0
2015-Jul-07 05:34N 35°15' E 139°46'9 9.3
2015-Jul-07 04:34N 35°23' E 139°41'6 5.7
2015-Jul-07 03:33N 35°18' E 139°42'1 1.2
2015-Jul-07 02:34N 35°17' E 139°41'0 0.0
2015-Jul-07 01:34N 35°17' E 139°41'0 0.0
2015-Jul-07 00:34N 35°17' E 139°41'0 0.0
2015-Jul-06 23:33N 35°17' E 139°41'0 0.0
2015-Jul-06 22:34N 35°17' E 139°41'0 0.0
2015-Jul-06 21:34N 35°17' E 139°41'0 0.0
2015-Jul-06 20:34N 35°17' E 139°41'0 0.0
2015-Jul-06 19:33N 35°17' E 139°41'0 0.0
2015-Jul-06 18:33N 35°17' E 139°41'0 0.0
2015-Jul-06 17:33N 35°17' E 139°41'0 0.0
2015-Jul-06 16:33N 35°17' E 139°41'0 0.0
2015-Jul-06 15:34N 35°17' E 139°41'0 0.0
2015-Jul-06 14:33N 35°17' E 139°41'0 0.0
2015-Jul-06 13:33N 35°17' E 139°41'0 0.0
2015-Jul-06 12:33N 35°17' E 139°41'0 0.0
2015-Jul-06 11:30N 35°17' E 139°41'0 0.0
2015-Jul-06 10:33N 35°17' E 139°41'0 0.0
2015-Jul-06 09:33N 35°17' E 139°41'0 0.0
2015-Jul-06 08:33N 35°17' E 139°41'0 0.0
2015-Jul-06 07:33N 35°17' E 139°41'0 0.0
2015-Jul-06 06:34N 35°17' E 139°41'0 0.0
2015-Jul-06 05:33N 35°17' E 139°41'0 0.0
2015-Jul-06 04:34N 35°17' E 139°41'0 0.0
2015-Jul-06 03:34N 35°17' E 139°41'5 4.5
2015-Jul-06 02:33N 35°15' E 139°45'1 1.3
2015-Jul-06 01:33N 35°16' E 139°46'1211.7
2015-Jul-06 00:34N 35°28' E 139°47'2 1.6
2015-Jul-05 23:33N 35°29' E 139°47'0 0.0
2015-Jul-05 22:33N 35°29' E 139°47'2 2.2
2015-Jul-05 21:33N 35°27' E 139°47'1111.3
2015-Jul-05 20:33N 35°16' E 139°47'4 3.6
2015-Jul-05 19:34N 35°12' E 139°46'3 1.3
2015-Jul-05 17:24N 35°13' E 139°43'0 0.0
2015-Jul-05 16:33N 35°13' E 139°43'0 0.0
2015-Jul-05 15:33N 35°13' E 139°43'0 0.0
2015-Jul-05 14:25N 35°13' E 139°43'1 0.2
2015-Jul-05 09:33N 35°13' E 139°44'7 6.8
2015-Jul-05 08:33N 35°20' E 139°43'7 6.5
2015-Jul-05 07:33N 35°24' E 139°49'2 1.7
2015-Jul-05 06:33N 35°24' E 139°51'0 0.0
2015-Jul-05 05:33N 35°24' E 139°51'5 4.8
2015-Jul-05 04:33N 35°28' E 139°51'1211.8
2015-Jul-05 03:33N 35°18' E 139°45'8 8.0
2015-Jul-05 02:33N 35°10' E 139°47'6 6.5
2015-Jul-05 01:33N 35°16' E 139°45'6 5.8
2015-Jul-05 00:33N 35°21' E 139°42'3 3.2
2015-Jul-04 23:33N 35°23' E 139°45'1111.2
2015-Jul-04 22:33N 35°11' E 139°47'5 5.2
2015-Jul-04 21:33N 35°16' E 139°45'3 3.4
2015-Jul-04 20:33N 35°17' E 139°41'0 0.0
2015-Jul-04 19:33N 35°17' E 139°41'0 0.0
2015-Jul-04 18:33N 35°17' E 139°41'0 0.0
2015-Jul-04 17:33N 35°17' E 139°41'0 0.0
2015-Jul-04 16:33N 35°17' E 139°41'0 0.0
2015-Jul-04 15:33N 35°17' E 139°41'0 0.0
2015-Jul-04 14:33N 35°17' E 139°41'0 0.0
2015-Jul-04 13:33N 35°17' E 139°41'0 0.0
2015-Jul-04 12:33N 35°17' E 139°41'0 0.0
2015-Jul-04 11:27N 35°17' E 139°41'0 0.0
2015-Jul-04 10:33N 35°17' E 139°41'0 0.0
2015-Jul-04 09:33N 35°17' E 139°41'0 0.0
2015-Jul-04 08:32N 35°17' E 139°41'0 0.0
2015-Jul-04 07:32N 35°17' E 139°41'0 0.0
2015-Jul-04 06:33N 35°17' E 139°41'0 0.0
2015-Jul-04 05:32N 35°17' E 139°41'0 0.0
2015-Jul-04 04:32N 35°17' E 139°41'0 0.0
2015-Jul-04 03:15N 35°17' E 139°41'5 7.2
2015-Jul-04 02:33N 35°14' E 139°45'7 6.6
2015-Jul-04 01:34N 35°20' E 139°42'5 4.8
2015-Jul-04 00:34N 35°24' E 139°39'4 3.7
2015-Jul-03 23:33N 35°21' E 139°41'4 0.7
2015-Jul-03 18:31N 35°17' E 139°41'0 0.0
2015-Jul-03 15:25N 35°17' E 139°41'1 0.1
2015-Jul-03 11:34N 35°17' E 139°41'5 5.2
2015-Jul-03 10:32N 35°14' E 139°46'1211.9
2015-Jul-03 09:34N 35°25' E 139°42'1 1.2
2015-Jul-03 08:34N 35°25' E 139°44'1 1.0
2015-Jul-03 07:34N 35°24' E 139°44'0 0.0
2015-Jul-03 06:34N 35°24' E 139°44'0 0.0
2015-Jul-03 05:34N 35°24' E 139°44'5 5.3
2015-Jul-03 04:34N 35°20' E 139°49'1 1.4
2015-Jul-03 03:34N 35°22' E 139°49'1 1.2
2015-Jul-03 02:34N 35°23' E 139°49'4 3.9
2015-Jul-03 01:33N 35°21' E 139°45'1110.6
2015-Jul-03 00:33N 35°10' E 139°47'8 8.2
2015-Jul-02 23:32N 35°17' E 139°42'1 1.0
2015-Jul-02 22:28N 35°17' E 139°41'0 0.0
2015-Jul-02 21:21N 35°17' E 139°41'0 0.0
2015-Jul-02 20:33N 35°17' E 139°41'0 0.0
2015-Jul-02 19:31N 35°17' E 139°41'0 0.0
2015-Jul-02 18:31N 35°17' E 139°41'0 0.1
2015-Jul-02 17:32N 35°17' E 139°41'0 0.0
2015-Jul-02 16:33N 35°17' E 139°41'0 0.0
2015-Jul-02 15:33N 35°17' E 139°41'0 0.0
2015-Jul-02 14:33N 35°17' E 139°41'0 0.0
2015-Jul-02 13:33N 35°17' E 139°41'0 0.0
2015-Jul-02 12:33N 35°17' E 139°41'0 0.0
2015-Jul-02 11:31N 35°17' E 139°41'0 0.1
2015-Jul-02 10:33N 35°17' E 139°41'0 0.0
2015-Jul-02 09:32N 35°17' E 139°41'0 0.1
2015-Jul-02 08:32N 35°17' E 139°41'0 0.0
2015-Jul-02 07:33N 35°17' E 139°41'0 0.0
2015-Jul-02 06:33N 35°17' E 139°41'0 0.0
2015-Jul-02 05:33N 35°17' E 139°41'5 4.5
2015-Jul-02 04:33N 35°15' E 139°46'6 5.7
2015-Jul-02 03:33N 35°20' E 139°42'1111.4
2015-Jul-02 02:34N 35°29' E 139°51'5 4.9
2015-Jul-02 01:34N 35°31' E 139°57'3 2.7
2015-Jul-02 00:34N 35°29' E 139°55'0 0.0
2015-Jul-01 23:33N 35°29' E 139°55'3 3.3
2015-Jul-01 22:30N 35°27' E 139°51'1111.3
2015-Jul-01 21:33N 35°18' E 139°44'7 7.3
2015-Jul-01 20:34N 35°11' E 139°46'8 3.7
2015-Jul-01 18:33N 35°17' E 139°41'0 0.0
2015-Jul-01 17:31N 35°17' E 139°41'0 0.0
2015-Jul-01 16:28N 35°17' E 139°41'0 0.0
2015-Jul-01 15:05N 35°17' E 139°41'0 0.0
2015-Jul-01 14:18N 35°17' E 139°41'0 0.0
2015-Jul-01 08:31N 35°17' E 139°41'0 0.0
2015-Jul-01 05:20N 35°17' E 139°41'0 0.0
2015-Jul-01 04:32N 35°17' E 139°41'0 0.0
2015-Jun-30 22:19N 35°17' E 139°41'0 0.1
2015-Jun-30 20:18N 35°17' E 139°41'0 0.0
2015-Jun-30 16:28N 35°17' E 139°41'0 0.0
2015-Jun-30 10:19N 35°17' E 139°41'5 6.2
2015-Jun-30 09:33N 35°13' E 139°44'4 4.5
2015-Jun-30 08:33N 35°18' E 139°44'5 4.9
2015-Jun-30 07:33N 35°22' E 139°42'5 5.4
2015-Jun-30 06:33N 35°17' E 139°41'0 0.0
2015-Jun-30 05:33N 35°17' E 139°41'0 0.0
2015-Jun-30 04:15N 35°17' E 139°41'0 0.0
2015-Jun-30 03:33N 35°17' E 139°41'1 1.1
2015-Jun-30 02:33N 35°18' E 139°42'3 3.0
2015-Jun-30 01:33N 35°17' E 139°45'9 8.8
2015-Jun-30 00:33N 35°24' E 139°39'4 4.1
2015-Jun-29 23:34N 35°20' E 139°41'3 3.1
2015-Jun-29 22:33N 35°17' E 139°41'0 0.0
2015-Jun-29 21:28N 35°17' E 139°41'0 0.0
2015-Jun-29 20:33N 35°17' E 139°41'0 0.0
2015-Jun-29 19:11N 35°17' E 139°41'0 0.0
2015-Jun-29 18:28N 35°17' E 139°41'0 0.0
2015-Jun-29 16:31N 35°17' E 139°41'0 0.0
2015-Jun-29 15:15N 35°17' E 139°41'0 0.0
2015-Jun-29 13:32N 35°17' E 139°41'0 0.0
2015-Jun-29 12:28N 35°17' E 139°41'0 0.0
2015-Jun-29 11:33N 35°17' E 139°41'0 0.0
2015-Jun-29 10:16N 35°17' E 139°41'0 0.0
2015-Jun-29 09:31N 35°17' E 139°41'0 0.0
2015-Jun-29 08:28N 35°17' E 139°41'0 0.0
2015-Jun-29 07:29N 35°17' E 139°41'0 0.0
2015-Jun-29 06:32N 35°17' E 139°41'0 0.0
2015-Jun-29 05:34N 35°17' E 139°41'0 0.0
2015-Jun-29 04:33N 35°17' E 139°41'0 0.0
2015-Jun-29 03:33N 35°17' E 139°41'0 0.0
2015-Jun-29 02:32N 35°17' E 139°41'0 0.0
2015-Jun-29 01:33N 35°17' E 139°41'0 0.0
2015-Jun-29 00:27N 35°17' E 139°41'0 0.0
2015-Jun-28 23:32N 35°17' E 139°41'0 0.0
2015-Jun-28 22:33N 35°17' E 139°41'2 1.8
2015-Jun-28 21:33N 35°18' E 139°42'7 7.3
2015-Jun-28 20:33N 35°25' E 139°43'6 6.1
2015-Jun-28 19:34N 35°19' E 139°43'9 9.1
2015-Jun-28 18:33N 35°10' E 139°46'4 3.9
2015-Jun-28 17:32N 35°13' E 139°43'0 0.0
2015-Jun-28 16:33N 35°13' E 139°43'0 0.0
2015-Jun-28 15:33N 35°13' E 139°43'0 0.0
2015-Jun-28 14:33N 35°13' E 139°43'0 0.0
2015-Jun-28 13:33N 35°13' E 139°43'3 2.7
2015-Jun-28 12:33N 35°12' E 139°46'1212.2
2015-Jun-28 11:33N 35°24' E 139°43'1 1.3
2015-Jun-28 10:33N 35°24' E 139°44'0 0.0
2015-Jun-28 09:33N 35°24' E 139°44'2 2.1
2015-Jun-28 08:33N 35°25' E 139°47'1211.6
2015-Jun-28 07:33N 35°14' E 139°47'3 3.1
2015-Jun-28 06:33N 35°13' E 139°43'0 0.0
2015-Jun-28 05:24N 35°13' E 139°43'0 0.0
2015-Jun-28 04:20N 35°13' E 139°43'0 0.0
2015-Jun-28 03:23N 35°13' E 139°43'0 0.0
2015-Jun-28 02:23N 35°13' E 139°43'0 0.0
2015-Jun-28 00:30N 35°13' E 139°43'1 1.4
2015-Jun-27 23:33N 35°13' E 139°45'5 5.1
2015-Jun-27 22:33N 35°17' E 139°41'1 0.5
2015-Jun-27 21:34N 35°17' E 139°41'0 0.0
2015-Jun-27 20:33N 35°17' E 139°41'  

Dump ship's entire track history